Time;durP1;ratioP1;P1;durP2;ratioP2;P2;SDS_P1;SDS_P2;PMS_P1;PMS_P2;Temp;Humidity;BMP_temperature;BMP_pressure;BME280_temperature;BME280_humidity;BME280_pressure;Samples;Min_cycle;Max_cycle;Signal;HPM_P1;HPM_P2
2023/06/28 06:56:59;;;;;;;6.80;2.20;;;;;;;18.54;57.33;96813.81;2085060;28;20537;-59
2023/06/28 06:59:09;;;;;;;10.35;1.95;;;;;;;18.74;55.48;96814.94;2101454;27;20574;-59
2023/06/28 07:00:12;;;;;;;11.07;2.60;;;;;;;18.88;55.76;96816.56;2097771;28;20218;-59
2023/06/28 07:02:28;;;;;;;6.95;1.95;;;;;;;19.33;55.31;96824.63;2092858;28;20967;-59
2023/06/28 07:03:30;;;;;;;12.00;2.10;;;;;;;19.46;54.84;96823.66;2082423;28;20248;-59
2023/06/28 07:05:44;;;;;;;15.85;1.80;;;;;;;19.62;53.71;96821.50;2107163;27;20566;-59
2023/06/28 07:06:46;;;;;;;5.57;1.92;;;;;;;19.48;53.43;96819.94;2108157;28;20287;-59
2023/06/28 07:08:59;;;;;;;18.02;2.05;;;;;;;18.97;54.68;96821.19;2085078;27;20570;-59
2023/06/28 07:10:00;;;;;;;11.40;2.13;;;;;;;19.27;54.29;96819.78;2080014;28;20621;-59
2023/06/28 07:11:02;;;;;;;6.22;2.20;;;;;;;19.39;53.80;96821.50;2078874;28;20628;-59
2023/06/28 07:13:20;;;;;;;10.68;1.90;;;;;;;19.19;53.65;96820.38;2089726;28;20561;-59
2023/06/28 07:14:21;;;;;;;12.52;2.00;;;;;;;19.35;53.47;96832.44;2082962;28;20193;-59
2023/06/28 07:16:48;;;;;;;10.55;1.98;;;;;;;19.07;53.79;96826.63;2101715;27;20566;-59
2023/06/28 07:17:52;;;;;;;10.75;2.00;;;;;;;19.14;54.55;96827.00;2098699;28;20188;-59
2023/06/28 07:20:07;;;;;;;3.80;1.40;;;;;;;19.14;54.19;96825.19;2100612;27;20556;-59
2023/06/28 07:21:08;;;;;;;5.72;2.22;;;;;;;19.05;54.44;96816.16;2097532;28;20196;-59
2023/06/28 07:23:28;;;;;;;5.97;1.92;;;;;;;19.09;54.02;96822.06;2084844;28;20633;-59
2023/06/28 07:24:29;;;;;;;9.30;2.60;;;;;;;19.02;54.64;96821.69;2080512;28;20188;-59
2023/06/28 07:25:32;;;;;;;14.82;2.60;;;;;;;18.98;54.30;96820.25;2081374;28;20245;-59
2023/06/28 07:27:55;;;;;;;11.50;2.92;;;;;;;19.30;54.03;96821.34;2085220;28;20582;-59
2023/06/28 07:29:00;;;;;;;12.30;2.28;;;;;;;19.38;53.45;96817.16;2081209;28;20225;-59
2023/06/28 07:30:02;;;;;;;14.20;2.00;;;;;;;19.58;53.66;96814.78;2080282;28;20208;-59
2023/06/28 07:31:03;;;;;;;7.57;2.25;;;;;;;19.47;53.26;96825.38;2079595;28;21035;-59
2023/06/28 07:32:05;;;;;;;7.05;1.70;;;;;;;19.57;53.52;96821.03;2080023;28;20699;-58
2023/06/28 07:34:31;;;;;;;6.95;1.65;;;;;;;19.37;53.09;96819.94;2095284;28;20573;-58
2023/06/28 07:35:33;;;;;;;6.25;1.83;;;;;;;19.40;53.78;96819.69;2088807;28;20195;-58
2023/06/28 07:36:34;;;;;;;7.82;1.77;;;;;;;19.72;53.29;96825.13;2088535;28;20242;-58
2023/06/28 07:37:36;;;;;;;5.03;1.70;;;;;;;19.48;52.98;96827.88;2089449;28;20303;-59
2023/06/28 07:38:37;;;;;;;7.15;1.95;;;;;;;19.72;52.81;96835.72;2079620;28;20332;-59
2023/06/28 07:39:38;;;;;;;6.30;1.70;;;;;;;19.73;52.56;96826.81;2069796;28;20201;-59
2023/06/28 07:40:40;;;;;;;11.38;1.80;;;;;;;19.86;52.45;96828.53;2069104;28;20190;-59
2023/06/28 07:41:41;;;;;;;6.85;1.98;;;;;;;19.87;52.16;96832.84;2070597;28;20260;-58
2023/06/28 07:42:43;;;;;;;4.32;1.85;;;;;;;20.02;52.16;96828.13;2072799;28;20208;-59
2023/06/28 07:43:44;;;;;;;6.25;1.80;;;;;;;19.84;51.84;96827.78;2072426;28;20684;-59
2023/06/28 07:44:46;;;;;;;12.43;1.98;;;;;;;19.81;51.50;96830.66;2071132;28;20200;-59
2023/06/28 07:45:47;;;;;;;9.25;2.10;;;;;;;19.68;52.06;96823.69;2071268;28;20208;-58
2023/06/28 07:46:49;;;;;;;13.82;2.70;;;;;;;19.60;52.19;96826.06;2071170;28;20231;-58
2023/06/28 07:47:50;;;;;;;8.15;2.20;;;;;;;19.39;52.47;96802.13;2075366;28;20224;-58
2023/06/28 07:48:52;;;;;;;10.38;1.73;;;;;;;19.65;52.83;96828.38;2071591;28;20233;-59
2023/06/28 07:49:53;;;;;;;6.03;1.70;;;;;;;20.01;52.08;96829.06;2072666;28;20201;-59
2023/06/28 07:50:55;;;;;;;6.72;1.55;;;;;;;20.14;51.87;96828.97;2070899;28;20202;-58
2023/06/28 07:51:58;;;;;;;6.20;1.80;;;;;;;19.97;51.96;96825.88;2071786;28;20198;-59
2023/06/28 07:53:00;;;;;;;8.52;2.00;;;;;;;19.75;51.22;96824.84;2070352;28;20841;-59
2023/06/28 07:54:03;;;;;;;8.00;1.65;;;;;;;19.82;51.60;96830.56;2078722;28;20260;-59
2023/06/28 07:55:07;;;;;;;5.72;1.40;;;;;;;19.97;50.48;96825.00;2077067;28;20288;-59
2023/06/28 07:56:09;;;;;;;11.20;2.45;;;;;;;20.05;50.38;96820.78;2076312;28;20205;-59
2023/06/28 07:57:11;;;;;;;17.17;2.58;;;;;;;19.99;50.47;96825.72;2078535;28;20201;-59
2023/06/28 07:58:13;;;;;;;4.05;2.03;;;;;;;19.27;52.17;96822.44;2082298;28;20703;-59
2023/06/28 07:59:14;;;;;;;5.22;1.92;;;;;;;19.50;51.73;96827.75;2079164;28;20262;-59
2023/06/28 08:00:16;;;;;;;7.97;1.90;;;;;;;19.91;51.62;96829.00;2081319;28;20192;-58
2023/06/28 08:01:18;;;;;;;9.45;2.28;;;;;;;20.34;51.15;96830.84;2080682;28;20197;-58
2023/06/28 08:02:19;;;;;;;5.68;1.88;;;;;;;20.33;50.61;96828.31;2080111;28;20286;-59
2023/06/28 08:03:22;;;;;;;7.00;1.90;;;;;;;20.04;50.93;96832.34;2076999;28;20794;-59
2023/06/28 08:04:23;;;;;;;8.55;2.95;;;;;;;20.17;50.66;96826.06;2076147;28;20551;-59
2023/06/28 08:05:25;;;;;;;7.63;1.70;;;;;;;20.28;50.62;96828.69;2076471;28;20197;-59
2023/06/28 08:06:26;;;;;;;7.80;2.10;;;;;;;20.21;50.22;96823.03;2081531;28;20298;-59
2023/06/28 08:07:28;;;;;;;4.72;1.90;;;;;;;20.20;50.40;96828.44;2080260;28;20194;-59
2023/06/28 08:08:29;;;;;;;7.25;2.00;;;;;;;20.08;50.52;96822.34;2079247;28;20279;-59
2023/06/28 08:09:31;;;;;;;10.75;1.67;;;;;;;20.05;50.63;96825.25;2079919;28;20277;-59
2023/06/28 08:10:33;;;;;;;8.70;1.85;;;;;;;19.55;51.91;96825.59;2079900;28;20205;-58
2023/06/28 08:11:34;;;;;;;8.07;1.70;;;;;;;19.97;51.32;96819.69;2075206;28;20194;-59
2023/06/28 08:12:36;;;;;;;9.43;1.98;;;;;;;20.12;51.19;96829.06;2075909;28;20201;-59
2023/06/28 08:13:37;;;;;;;5.50;1.30;;;;;;;20.36;50.80;96833.34;2078663;28;20891;-59
2023/06/28 08:14:39;;;;;;;4.28;1.75;;;;;;;20.30;50.46;96813.50;2082082;28;20208;-59
2023/06/28 08:15:42;;;;;;;3.63;1.38;;;;;;;20.02;51.11;96822.81;2081647;28;20192;-59
2023/06/28 08:16:45;;;;;;;8.93;2.03;;;;;;;20.30;50.62;96826.75;2077181;28;20766;-59
2023/06/28 08:17:47;;;;;;;7.38;1.77;;;;;;;20.55;49.58;96825.56;2079133;28;20197;-58
2023/06/28 08:18:49;;;;;;;10.25;1.98;;;;;;;20.42;50.04;96826.69;2077258;28;20252;-58
2023/06/28 08:19:51;;;;;;;6.95;1.70;;;;;;;20.31;49.79;96819.63;2080672;28;20201;-59
2023/06/28 08:20:53;;;;;;;6.22;1.65;;;;;;;20.21;50.33;96817.75;2074581;28;20379;-59
2023/06/28 08:21:55;;;;;;;10.70;1.67;;;;;;;20.42;50.36;96826.69;2077162;28;20251;-59
2023/06/28 08:22:56;;;;;;;5.38;1.40;;;;;;;20.35;50.25;96819.25;2080790;28;20204;-59
2023/06/28 08:23:58;;;;;;;6.22;1.70;;;;;;;20.30;50.34;96826.75;2080167;28;20751;-59
2023/06/28 08:24:59;;;;;;;4.78;1.58;;;;;;;20.40;50.33;96826.81;2080884;28;20206;-59
2023/06/28 08:26:01;;;;;;;7.97;2.03;;;;;;;20.49;49.90;96819.94;2078645;28;20234;-59
2023/06/28 08:27:03;;;;;;;10.27;2.05;;;;;;;20.47;50.12;96824.53;2079759;28;20289;-59
2023/06/28 08:28:04;;;;;;;5.15;1.58;;;;;;;20.38;50.18;96821.66;2078215;28;20193;-59
2023/06/28 08:29:06;;;;;;;8.23;1.92;;;;;;;20.45;50.23;96826.47;2077717;28;20208;-58
2023/06/28 08:30:08;;;;;;;10.38;1.80;;;;;;;20.74;50.14;96825.91;2081240;28;20227;-59
2023/06/28 08:31:10;;;;;;;8.82;2.50;;;;;;;20.90;49.62;96818.34;2080022;28;20212;-59
2023/06/28 08:32:11;;;;;;;7.70;1.90;;;;;;;20.86;49.74;96819.53;2078448;28;20236;-59
2023/06/28 08:33:13;;;;;;;6.85;2.10;;;;;;;21.16;48.99;96825.91;2078306;28;20204;-59
2023/06/28 08:34:18;;;;;;;3.28;1.58;;;;;;;21.00;48.90;96826.34;2081158;28;20244;-59
2023/06/28 08:35:19;;;;;;;7.47;2.50;;;;;;;21.10;49.05;96819.28;2082354;28;20679;-59
2023/06/28 08:36:21;;;;;;;8.85;2.08;;;;;;;21.13;49.16;96821.69;2081980;28;20193;-60
2023/06/28 08:37:23;;;;;;;19.73;2.20;;;;;;;20.91;49.34;96824.47;2082655;28;20631;-60
2023/06/28 08:38:24;;;;;;;6.57;1.80;;;;;;;21.08;49.10;96829.22;2078158;28;20225;-60
2023/06/28 08:39:26;;;;;;;8.70;1.70;;;;;;;21.27;48.37;96820.53;2078730;28;20751;-59
2023/06/28 08:40:29;;;;;;;6.60;1.75;;;;;;;21.68;48.78;96817.97;2076797;28;20201;-60
2023/06/28 08:41:33;;;;;;;8.50;1.85;;;;;;;21.64;47.96;96814.72;2075015;28;20830;-60
2023/06/28 08:42:35;;;;;;;17.58;2.72;;;;;;;21.89;47.29;96817.91;2074586;28;20247;-60
2023/06/28 08:43:38;;;;;;;10.20;2.20;;;;;;;21.61;47.55;96819.44;2079984;28;20213;-60
2023/06/28 08:44:41;;;;;;;9.88;1.80;;;;;;;21.27;47.95;96817.88;2081248;28;20227;-60
2023/06/28 08:45:44;;;;;;;10.55;2.03;;;;;;;21.12;49.06;96824.50;2074587;28;20190;-60
2023/06/28 08:46:48;;;;;;;7.57;2.20;;;;;;;21.50;48.65;96821.19;2074734;28;20275;-60
2023/06/28 08:47:50;;;;;;;11.13;1.95;;;;;;;21.80;47.64;96824.00;2073077;28;20213;-60
2023/06/28 08:48:53;;;;;;;10.80;2.03;;;;;;;21.76;48.41;96817.28;2071481;28;20229;-60
2023/06/28 08:49:55;;;;;;;7.30;2.00;;;;;;;21.67;47.61;96822.44;2069820;28;20641;-60
2023/06/28 08:50:57;;;;;;;5.43;1.65;;;;;;;21.56;47.19;96827.84;2068557;28;20228;-62
2023/06/28 08:51:59;;;;;;;4.90;1.88;;;;;;;21.53;47.31;96817.44;2071304;28;20197;-62
2023/06/28 08:53:04;;;;;;;6.72;2.13;;;;;;;21.74;47.14;96816.56;2076418;28;20907;-62
2023/06/28 08:54:07;;;;;;;8.63;2.22;;;;;;;21.28;48.02;96818.69;2076233;28;20660;-62
2023/06/28 08:55:10;;;;;;;4.78;2.08;;;;;;;21.31;48.81;96821.13;2074156;28;20213;-62
2023/06/28 08:56:13;;;;;;;11.10;1.95;;;;;;;21.72;48.85;96819.34;2071544;28;20198;-62
2023/06/28 08:57:16;;;;;;;7.85;2.10;;;;;;;21.52;48.01;96815.75;2074924;28;20760;-62
2023/06/28 08:58:18;;;;;;;8.60;2.10;;;;;;;21.52;47.85;96821.91;2073476;28;20197;-62
2023/06/28 08:59:20;;;;;;;6.22;1.70;;;;;;;21.91;47.09;96817.75;2073564;28;20197;-61
2023/06/28 09:00:21;;;;;;;3.47;1.50;;;;;;;21.70;47.65;96816.00;2073270;28;20287;-62
2023/06/28 09:01:23;;;;;;;4.90;1.77;;;;;;;21.82;47.90;96811.44;2073272;28;20198;-62
2023/06/28 09:02:30;;;;;;;12.13;2.17;;;;;;;22.10;47.53;96811.66;2076204;28;20837;-62
2023/06/28 09:03:32;;;;;;;4.30;2.00;;;;;;;22.48;46.94;96813.53;2071993;28;20592;-62
2023/06/28 09:04:34;;;;;;;8.10;1.65;;;;;;;22.25;47.19;96817.41;2074044;28;20556;-62
2023/06/28 09:05:36;;;;;;;8.38;1.92;;;;;;;22.10;47.25;96815.13;2072481;28;20648;-62
2023/06/28 09:06:38;;;;;;;11.88;1.80;;;;;;;22.32;46.94;96816.72;2069937;28;20289;-62
2023/06/28 09:07:40;;;;;;;4.85;1.50;;;;;;;22.56;46.28;96815.50;2074022;28;20244;-62
2023/06/28 09:08:45;;;;;;;11.13;2.22;;;;;;;22.43;46.16;96817.63;2074611;28;20229;-62
2023/06/28 09:09:48;;;;;;;9.45;1.80;;;;;;;22.50;46.75;96814.25;2073673;28;20209;-62
2023/06/28 09:10:50;;;;;;;6.55;1.88;;;;;;;22.02;46.28;96810.50;2073083;28;20202;-62
2023/06/28 09:11:53;;;;;;;6.90;2.20;;;;;;;21.95;46.36;96811.19;2074190;28;20284;-62
2023/06/28 09:12:55;;;;;;;14.02;2.17;;;;;;;21.62;47.17;96819.34;2075929;28;20774;-62
2023/06/28 09:13:57;;;;;;;12.65;2.47;;;;;;;21.63;46.89;96818.34;2074120;28;20221;-62
2023/06/28 09:14:58;;;;;;;11.68;2.15;;;;;;;21.27;48.93;96801.06;2075304;28;20220;-61
2023/06/28 09:16:00;;;;;;;9.23;2.25;;;;;;;21.76;47.56;96817.28;2074805;28;20198;-62
2023/06/28 09:17:02;;;;;;;6.35;2.05;;;;;;;21.76;48.12;96817.28;2077803;28;20201;-62
2023/06/28 09:18:03;;;;;;;9.23;1.77;;;;;;;21.62;48.27;96814.03;2073517;28;20197;-62
2023/06/28 09:19:05;;;;;;;5.55;1.85;;;;;;;21.65;47.33;96813.75;2076485;28;20676;-61
2023/06/28 09:20:17;;;;;;;6.78;1.80;;;;;;;21.75;47.18;96816.44;2073766;28;20642;-62
2023/06/28 09:21:25;;;;;;;5.05;1.70;;;;;;;21.62;47.01;96819.34;2070547;28;20711;-61
2023/06/28 09:22:28;;;;;;;8.07;2.00;;;;;;;21.21;47.77;96821.03;2074234;28;20193;-62
2023/06/28 09:23:32;;;;;;;8.07;2.20;;;;;;;20.66;49.03;96814.06;2073272;28;20266;-61
2023/06/28 09:24:34;;;;;;;8.13;2.30;;;;;;;20.95;49.03;96815.28;2073215;28;20209;-62
2023/06/28 09:25:36;;;;;;;11.48;2.22;;;;;;;21.23;48.22;96812.94;2072287;28;20711;-61
2023/06/28 09:26:40;;;;;;;16.08;2.35;;;;;;;21.46;47.45;96814.47;2076884;28;20197;-62
2023/06/28 09:27:42;;;;;;;9.02;2.22;;;;;;;20.97;48.85;96814.19;2072055;28;20677;-61
2023/06/28 09:28:43;;;;;;;15.98;2.60;;;;;;;20.96;49.46;96806.34;2068539;28;20214;-61
2023/06/28 09:29:57;;;;;;;10.05;1.70;;;;;;;21.72;48.38;96807.91;2073166;28;20193;-62
2023/06/28 09:31:00;;;;;;;7.68;2.38;;;;;;;22.36;47.32;96806.66;2074079;28;20194;-62
2023/06/28 09:32:02;;;;;;;15.00;2.20;;;;;;;22.68;46.49;96810.91;2073279;28;20259;-62
2023/06/28 09:33:04;;;;;;;9.65;2.20;;;;;;;22.46;46.02;96810.19;2072918;28;20233;-62
2023/06/28 09:34:05;;;;;;;5.88;1.73;;;;;;;22.27;46.40;96813.66;2071929;28;20648;-61
2023/06/28 09:35:13;;;;;;;10.73;1.92;;;;;;;21.77;46.93;96808.34;2073330;28;20823;-63
2023/06/28 09:36:14;;;;;;;9.00;2.90;;;;;;;21.57;47.87;96807.41;2076576;28;20197;-62
2023/06/28 09:37:16;;;;;;;10.43;2.50;;;;;;;22.13;47.37;96811.38;2071886;28;20197;-62
2023/06/28 09:38:17;;;;;;;10.95;2.33;;;;;;;22.69;46.41;96804.59;2069750;28;20633;-62
2023/06/28 09:39:20;;;;;;;16.77;2.28;;;;;;;22.90;45.45;96804.44;2074461;28;20584;-62
2023/06/28 09:40:22;;;;;;;8.57;2.42;;;;;;;23.01;45.43;96803.44;2071606;28;20202;-62
2023/06/28 09:41:24;;;;;;;9.05;2.15;;;;;;;23.39;45.08;96807.03;2072251;28;20205;-62
2023/06/28 09:42:26;;;;;;;10.57;2.70;;;;;;;23.45;44.89;96810.94;2073921;28;20568;-62
2023/06/28 09:43:35;;;;;;;5.15;1.60;;;;;;;23.42;44.47;96809.41;2074368;28;20217;-62
2023/06/28 09:44:37;;;;;;;14.40;2.30;;;;;;;23.26;45.30;96803.84;2075177;28;20194;-62
2023/06/28 09:45:38;;;;;;;6.75;1.83;;;;;;;23.63;44.63;96808.38;2073147;28;20735;-61
2023/06/28 09:46:43;;;;;;;9.15;2.20;;;;;;;23.21;45.64;96809.63;2070626;28;20223;-62
2023/06/28 09:47:45;;;;;;;13.35;1.85;;;;;;;23.59;45.02;96805.16;2072554;28;20252;-62
2023/06/28 09:48:48;;;;;;;7.15;2.10;;;;;;;24.08;43.74;96801.44;2073767;28;20732;-62
2023/06/28 09:49:56;;;;;;;7.72;2.13;;;;;;;24.23;43.66;96805.25;2070248;28;20210;-61
2023/06/28 09:51:04;;;;;;;9.73;1.90;;;;;;;23.19;44.49;96808.91;2070362;28;20194;-62
2023/06/28 09:52:06;;;;;;;5.63;2.15;;;;;;;22.52;46.46;96800.81;2074929;28;20212;-62
2023/06/28 09:53:10;;;;;;;5.15;1.70;;;;;;;22.54;45.57;96800.66;2071934;28;20205;-62
2023/06/28 09:54:13;;;;;;;19.48;1.67;;;;;;;21.73;47.24;96799.78;2072193;28;20250;-61
2023/06/28 09:55:15;;;;;;;8.68;2.08;;;;;;;21.40;47.75;96800.88;2070632;28;20300;-61
2023/06/28 09:56:17;;;;;;;12.13;2.35;;;;;;;21.63;47.97;96799.75;2074301;28;20715;-61
2023/06/28 09:57:18;;;;;;;7.47;1.70;;;;;;;21.77;47.73;96806.50;2072609;28;20263;-61
2023/06/28 09:58:23;;;;;;;5.25;1.88;;;;;;;22.50;46.37;96798.28;2070360;28;20230;-62
2023/06/28 09:59:28;;;;;;;12.82;2.47;;;;;;;22.91;45.99;96799.97;2068278;28;20197;-62
2023/06/28 10:00:40;;;;;;;9.65;1.70;;;;;;;23.21;45.52;96803.44;2073286;28;20202;-62
2023/06/28 10:01:42;;;;;;;5.10;1.85;;;;;;;23.55;44.56;96797.59;2073859;28;20254;-62
2023/06/28 10:02:46;;;;;;;11.30;2.40;;;;;;;23.67;44.54;96800.88;2069828;28;20285;-62
2023/06/28 10:03:51;;;;;;;8.70;2.05;;;;;;;24.00;43.55;96799.50;2068476;28;20221;-62
2023/06/28 10:04:54;;;;;;;5.18;1.98;;;;;;;24.01;44.05;96797.66;2069979;28;20222;-61
2023/06/28 10:05:57;;;;;;;8.00;1.80;;;;;;;24.15;44.03;96799.00;2080519;28;20194;-62
2023/06/28 10:07:00;;;;;;;9.18;1.77;;;;;;;24.05;43.58;96799.91;2081210;28;20200;-61
2023/06/28 10:08:06;;;;;;;7.40;1.88;;;;;;;23.95;43.82;96805.28;2077445;28;20632;-62
2023/06/28 10:09:07;;;;;;;4.38;1.67;;;;;;;23.54;44.62;96796.75;2071716;28;20229;-62
2023/06/28 10:10:10;;;;;;;8.73;1.75;;;;;;;23.60;44.47;96801.50;2070769;28;20209;-62
2023/06/28 10:11:15;;;;;;;9.07;2.00;;;;;;;23.20;44.58;96799.09;2069597;28;20197;-61
2023/06/28 10:12:19;;;;;;;5.97;2.20;;;;;;;22.92;45.50;96796.28;2068390;28;20240;-61
2023/06/28 10:13:22;;;;;;;9.07;1.65;;;;;;;22.83;45.65;96790.03;2068990;28;20282;-61
2023/06/28 10:14:30;;;;;;;11.18;2.33;;;;;;;22.59;45.63;96785.97;2070142;28;20697;-61
2023/06/28 10:15:43;;;;;;;11.75;2.25;;;;;;;22.43;46.34;96788.34;2076994;28;20224;-60
2023/06/28 10:16:45;;;;;;;12.30;2.10;;;;;;;22.28;46.60;96790.53;2074743;28;20985;-60
2023/06/28 10:17:48;;;;;;;7.65;2.13;;;;;;;22.29;46.84;96787.72;2074029;28;20700;-61
2023/06/28 10:18:50;;;;;;;7.93;1.98;;;;;;;22.07;46.42;96795.94;2070718;28;20233;-61
2023/06/28 10:19:53;;;;;;;10.55;1.90;;;;;;;22.21;46.69;96790.25;2073500;28;20252;-61
2023/06/28 10:20:55;;;;;;;9.40;2.50;;;;;;;22.40;46.73;96793.94;2072382;28;20224;-61
2023/06/28 10:21:59;;;;;;;10.77;2.13;;;;;;;22.62;45.87;96788.34;2068634;28;20345;-61
2023/06/28 10:23:01;;;;;;;8.30;2.28;;;;;;;23.08;45.63;96785.06;2069916;28;20225;-60
2023/06/28 10:24:03;;;;;;;11.35;2.08;;;;;;;22.77;45.94;96793.25;2069906;28;20225;-61
2023/06/28 10:25:05;;;;;;;7.80;2.10;;;;;;;22.70;46.63;96792.97;2072274;28;20203;-61
2023/06/28 10:26:08;;;;;;;7.82;2.30;;;;;;;22.38;46.45;96788.75;2072609;28;20213;-61
2023/06/28 10:27:11;;;;;;;7.63;2.47;;;;;;;22.37;46.65;96794.22;2073100;28;20193;-61
2023/06/28 10:28:14;;;;;;;11.80;1.80;;;;;;;22.67;46.11;96786.09;2072958;28;20189;-61
2023/06/28 10:29:16;;;;;;;13.30;2.08;;;;;;;22.89;46.29;96786.78;2074652;28;20197;-61
2023/06/28 10:30:20;;;;;;;11.38;2.50;;;;;;;22.97;45.21;96789.56;2073048;28;20288;-61
2023/06/28 10:31:22;;;;;;;7.82;2.00;;;;;;;23.29;45.15;96795.56;2069002;28;20194;-61
2023/06/28 10:32:24;;;;;;;9.10;2.15;;;;;;;23.15;45.53;96796.88;2070442;28;20216;-61
2023/06/28 10:33:31;;;;;;;12.57;2.40;;;;;;;22.99;45.53;96784.97;2074517;28;20900;-60
2023/06/28 10:34:34;;;;;;;8.95;2.15;;;;;;;23.45;44.76;96794.94;2071469;28;20227;-60
2023/06/28 10:35:36;;;;;;;6.47;2.00;;;;;;;23.29;45.26;96780.41;2071246;28;20242;-62
2023/06/28 10:36:38;;;;;;;11.63;2.08;;;;;;;23.22;44.48;96791.78;2074560;28;20254;-62
2023/06/28 10:37:39;;;;;;;7.47;2.17;;;;;;;22.89;44.90;96786.78;2073122;28;20316;-62
2023/06/28 10:38:43;;;;;;;13.98;2.33;;;;;;;22.97;45.12;96786.09;2072808;28;20893;-62
2023/06/28 10:39:44;;;;;;;7.22;2.67;;;;;;;23.28;45.05;96786.72;2070722;28;20240;-62
2023/06/28 10:40:46;;;;;;;7.03;2.35;;;;;;;23.39;44.45;96780.41;2074084;28;20206;-62
2023/06/28 10:41:55;;;;;;;5.45;1.98;;;;;;;23.31;44.72;96789.13;2073518;28;20198;-61
2023/06/28 10:42:57;;;;;;;7.55;1.60;;;;;;;23.88;44.02;96782.81;2072009;28;20343;-61
2023/06/28 10:44:06;;;;;;;6.25;1.90;;;;;;;23.71;44.06;96786.31;2073235;28;20304;-61
2023/06/28 10:45:08;;;;;;;11.32;2.22;;;;;;;24.13;42.97;96783.16;2072323;28;20247;-62
2023/06/28 10:46:23;;;;;;;10.48;2.70;;;;;;;24.46;43.00;96778.97;2075233;28;20228;-61
2023/06/28 10:47:25;;;;;;;8.43;1.70;;;;;;;24.37;42.75;96777.22;2070304;28;20197;-63
2023/06/28 10:48:27;;;;;;;14.35;5.40;;;;;;;24.48;42.41;96783.31;2071066;28;20260;-62
2023/06/28 10:49:33;;;;;;;8.95;2.72;;;;;;;24.55;42.67;96776.38;2072719;28;20719;-62
2023/06/28 10:50:41;;;;;;;9.35;4.65;;;;;;;24.57;42.73;96783.25;2073299;28;20227;-62
2023/06/28 10:51:47;;;;;;;9.02;4.13;;;;;;;24.18;42.68;96780.88;2071552;28;20225;-64
2023/06/28 10:52:52;;;;;;;8.50;3.97;;;;;;;24.84;42.09;96775.34;2074691;28;20284;-62
2023/06/28 10:54:09;;;;;;;10.73;2.17;;;;;;;24.93;41.93;96775.22;2073174;28;20264;-61
2023/06/28 10:55:11;;;;;;;8.23;2.17;;;;;;;24.51;42.75;96769.69;2071349;28;20855;-61
2023/06/28 10:56:13;;;;;;;8.75;1.92;;;;;;;24.54;42.83;96767.53;2072742;28;20241;-60
2023/06/28 10:57:14;;;;;;;6.60;2.35;;;;;;;24.32;42.90;96763.50;2074099;28;20201;-63
2023/06/28 10:58:26;;;;;;;7.32;2.00;;;;;;;24.05;43.11;96770.56;2074053;28;20200;-60
2023/06/28 10:59:28;;;;;;;6.63;2.30;;;;;;;23.50;44.23;96774.03;2072765;28;20229;-59
2023/06/28 11:00:46;;;;;;;5.90;1.75;;;;;;;23.85;43.92;96775.13;2073002;28;20201;-59
2023/06/28 11:01:48;;;;;;;9.88;2.10;;;;;;;23.58;44.62;96773.28;2073053;28;20205;-59
2023/06/28 11:03:04;;;;;;;8.50;1.67;;;;;;;23.86;44.34;96767.97;2070081;28;20672;-60
2023/06/28 11:04:16;;;;;;;4.15;2.00;;;;;;;24.18;44.21;96770.19;2069327;28;20216;-60
2023/06/28 11:05:38;;;;;;;6.35;1.80;;;;;;;23.86;43.96;96770.63;2073050;28;20198;-60
2023/06/28 11:06:40;;;;;;;7.47;1.92;;;;;;;23.58;44.20;96776.81;2076651;28;20822;-60
2023/06/28 11:07:51;;;;;;;8.48;1.98;;;;;;;23.79;44.36;96767.72;2074194;28;20710;-59
2023/06/28 11:08:52;;;;;;;8.85;2.20;;;;;;;23.51;44.44;96772.22;2072440;28;20237;-59
2023/06/28 11:10:16;;;;;;;7.07;1.60;;;;;;;23.28;44.85;96765.41;2072598;28;20202;-60
2023/06/28 11:11:35;;;;;;;28.20;4.53;;;;;;;23.63;44.57;96771.06;2073305;28;20198;-59
2023/06/28 11:12:40;;;;;;;6.45;1.88;;;;;;;23.75;44.16;96775.19;2070698;28;20209;-59
2023/06/28 11:13:45;;;;;;;8.32;1.95;;;;;;;24.08;43.43;96770.25;2070248;28;20307;-59
2023/06/28 11:14:46;;;;;;;6.85;1.70;;;;;;;24.01;43.70;96776.34;2076007;28;20210;-60
2023/06/28 11:15:48;;;;;;;3.50;1.65;;;;;;;23.71;44.59;96773.81;2078049;28;20201;-59
2023/06/28 11:16:50;;;;;;;10.07;2.33;;;;;;;23.70;44.22;96773.97;2074995;28;20230;-59
2023/06/28 11:17:52;;;;;;;5.80;1.52;;;;;;;23.47;45.13;96777.00;2076074;28;20201;-60
2023/06/28 11:18:53;;;;;;;5.03;2.10;;;;;;;23.99;44.33;96773.00;2074338;28;20228;-59
2023/06/28 11:20:06;;;;;;;4.28;1.50;;;;;;;24.20;43.82;96776.22;2069609;28;20336;-59
2023/06/28 11:21:15;;;;;;;7.38;1.70;;;;;;;24.14;43.79;96779.50;2071822;28;20287;-59
2023/06/28 11:22:17;;;;;;;6.63;1.80;;;;;;;24.29;43.59;96777.16;2071306;28;20271;-60
2023/06/28 11:23:38;;;;;;;6.40;1.98;;;;;;;24.20;43.28;96776.22;2071268;28;20243;-59
2023/06/28 11:24:40;;;;;;;5.28;1.75;;;;;;;24.02;44.23;96773.50;2074737;28;20792;-59
2023/06/28 11:25:42;;;;;;;7.00;1.70;;;;;;;25.02;42.68;96772.63;2075703;28;20240;-59
2023/06/28 11:26:46;;;;;;;14.27;2.15;;;;;;;25.81;41.88;96778.75;2072748;28;20197;-60
2023/06/28 11:27:47;;;;;;;8.10;2.10;;;;;;;26.36;40.65;96773.91;2073099;28;20198;-60
2023/06/28 11:28:55;;;;;;;8.98;2.15;;;;;;;25.84;40.70;96778.44;2069074;28;20288;-60
2023/06/28 11:29:59;;;;;;;6.05;1.65;;;;;;;25.41;41.43;96772.22;2070408;28;20258;-60
2023/06/28 11:31:22;;;;;;;6.40;2.00;;;;;;;25.12;41.88;96776.03;2073392;28;20301;-59
2023/06/28 11:32:25;;;;;;;5.38;2.00;;;;;;;24.78;42.23;96776.78;2069822;28;20349;-60
2023/06/28 11:33:28;;;;;;;11.43;1.60;;;;;;;24.77;42.41;96772.41;2073683;28;20220;-60
2023/06/28 11:34:32;;;;;;;6.93;2.00;;;;;;;24.65;42.17;96763.00;2073822;28;20193;-60
2023/06/28 11:35:34;;;;;;;5.68;2.22;;;;;;;24.38;42.94;96772.72;2076283;28;20189;-59
2023/06/28 11:36:36;;;;;;;4.65;1.92;;;;;;;24.25;43.08;96768.63;2073302;28;20395;-59
2023/06/28 11:37:38;;;;;;;4.32;1.70;;;;;;;24.20;43.30;96767.38;2074547;28;20602;-59
2023/06/28 11:38:44;;;;;;;3.60;1.75;;;;;;;24.53;42.71;96773.88;2068905;28;20308;-59
2023/06/28 11:39:47;;;;;;;6.47;1.92;;;;;;;24.02;43.10;96767.34;2070615;28;20206;-59
2023/06/28 11:40:49;;;;;;;4.47;1.67;;;;;;;24.74;42.72;96770.06;2070647;28;20205;-60
2023/06/28 11:41:50;;;;;;;11.80;2.53;;;;;;;24.65;43.09;96771.00;2071796;28;20213;-59
2023/06/28 11:42:52;;;;;;;6.25;2.28;;;;;;;24.99;43.38;96770.25;2071689;28;20204;-60
2023/06/28 11:44:03;;;;;;;5.53;1.25;;;;;;;25.00;42.60;96774.59;2072457;28;20584;-59
2023/06/28 11:45:06;;;;;;;6.65;2.15;;;;;;;25.13;42.70;96776.84;2073353;28;20202;-59
2023/06/28 11:46:07;;;;;;;6.28;1.60;;;;;;;25.36;42.41;96766.53;2075245;28;20189;-60
2023/06/28 11:47:09;;;;;;;4.95;2.00;;;;;;;25.55;42.24;96773.47;2073023;28;20316;-60
2023/06/28 11:48:10;;;;;;;10.57;2.13;;;;;;;25.69;41.39;96777.38;2069203;28;20252;-60
2023/06/28 11:49:14;;;;;;;7.32;1.67;;;;;;;25.99;41.50;96775.13;2069596;28;20233;-60
2023/06/28 11:50:16;;;;;;;4.72;1.90;;;;;;;26.88;40.40;96772.78;2069196;28;20233;-58
2023/06/28 11:51:17;;;;;;;8.23;2.83;;;;;;;26.64;39.58;96768.25;2062926;28;20198;-60
2023/06/28 11:52:20;;;;;;;7.45;2.00;;;;;;;26.89;40.95;96764.63;2063430;28;20195;-60
2023/06/28 11:53:23;;;;;;;5.50;2.28;;;;;;;27.46;39.03;96768.22;2072484;28;20201;-61
2023/06/28 11:54:26;;;;;;;4.97;1.90;;;;;;;27.78;39.18;96773.63;2073212;28;20542;-60
2023/06/28 11:55:28;;;;;;;6.88;1.90;;;;;;;27.54;39.35;96761.97;2075407;28;20285;-59
2023/06/28 11:56:44;;;;;;;6.38;1.98;;;;;;;27.34;38.67;96772.25;2071032;28;20217;-59
2023/06/28 11:57:46;;;;;;;6.30;1.98;;;;;;;27.20;38.70;96766.56;2069791;28;20197;-59
2023/06/28 11:58:47;;;;;;;12.90;1.50;;;;;;;27.57;38.92;96766.19;2069026;28;20225;-59
2023/06/28 11:59:50;;;;;;;5.85;1.60;;;;;;;27.11;37.86;96770.28;2068881;28;20206;-59
2023/06/28 12:00:52;;;;;;;5.93;1.60;;;;;;;27.25;37.82;96770.56;2070064;28;20240;-59
2023/06/28 12:02:06;;;;;;;3.72;1.45;;;;;;;27.24;37.29;96768.94;2070986;28;20217;-59
2023/06/28 12:03:08;;;;;;;6.95;2.00;;;;;;;26.36;38.54;96769.41;2070399;28;20256;-59
2023/06/28 12:04:20;;;;;;;4.13;1.42;;;;;;;26.13;39.16;96768.34;2070644;28;20203;-59
2023/06/28 12:05:25;;;;;;;7.03;1.85;;;;;;;26.58;40.33;96763.59;2074146;28;20200;-59
2023/06/28 12:06:27;;;;;;;4.38;1.50;;;;;;;26.53;38.31;96762.22;2072886;28;20674;-59
2023/06/28 12:07:28;;;;;;;4.45;1.67;;;;;;;26.14;39.49;96762.84;2070418;28;20208;-59